createdAt,value
2018-02-21T00:01:56.838Z,79.07
2018-02-21T00:04:24.321Z,67.07
2018-02-21T00:06:51.769Z,62.27
2018-02-21T00:09:19.268Z,68.73
2018-02-21T00:11:46.738Z,63.47
2018-02-21T00:14:14.185Z,66.87
2018-02-21T00:16:41.665Z,62.67
2018-02-21T00:19:09.113Z,70.87
2018-02-21T00:21:36.949Z,62.83
2018-02-21T00:24:04.909Z,67.03
2018-02-21T00:26:32.361Z,70.83
2018-02-21T00:29:00.070Z,69.37
2018-02-21T00:31:27.603Z,81.60
2018-02-21T00:33:55.225Z,78.90
2018-02-21T00:36:22.710Z,72.30
2018-02-21T00:38:50.169Z,66.50
2018-02-21T00:41:17.822Z,70.40
2018-02-21T00:43:45.265Z,64.20
2018-02-21T00:46:12.930Z,70.13
2018-02-21T00:48:40.394Z,65.13
2018-02-21T00:51:07.850Z,61.83
2018-02-21T00:53:35.317Z,68.20
2018-02-21T00:56:02.765Z,67.43
2018-02-21T00:58:30.249Z,71.20
2018-02-21T01:00:57.701Z,69.33
2018-02-21T01:03:25.146Z,70.30
2018-02-21T01:05:52.636Z,63.27
2018-02-21T01:08:20.164Z,69.57
2018-02-21T01:10:47.832Z,60.93
2018-02-21T01:13:15.309Z,68.07
2018-02-21T01:15:42.756Z,64.33
2018-02-21T01:18:10.225Z,75.33
2018-02-21T01:20:37.672Z,66.83
2018-02-21T01:23:05.158Z,73.27
2018-02-21T01:25:32.609Z,63.53
2018-02-21T01:28:00.174Z,68.27
2018-02-21T01:30:27.845Z,69.50
2018-02-21T01:32:55.294Z,65.00
2018-02-21T01:35:22.984Z,82.40
2018-02-21T01:37:50.436Z,70.57
2018-02-21T01:40:18.028Z,75.20
2018-02-21T01:42:45.560Z,66.23
2018-02-21T01:45:13.029Z,63.10
2018-02-21T01:47:40.645Z,66.07
2018-02-21T01:50:08.093Z,74.20
2018-02-21T01:52:35.544Z,62.07
2018-02-21T01:55:03.010Z,66.53
2018-02-21T01:57:30.469Z,65.53
2018-02-21T01:59:57.969Z,69.13
2018-02-21T02:02:25.418Z,65.60
2018-02-21T02:04:52.866Z,65.53
2018-02-21T02:07:20.332Z,66.67
2018-02-21T02:09:47.781Z,79.50
2018-02-21T02:12:15.437Z,71.70
2018-02-21T02:14:42.890Z,64.40
2018-02-21T02:17:10.377Z,72.33
2018-02-21T02:19:37.842Z,68.33
2018-02-21T02:22:05.289Z,67.30
2018-02-21T02:24:33.005Z,55.47
2018-02-21T02:27:00.732Z,65.30
2018-02-21T02:29:28.241Z,56.27
2018-02-21T02:31:55.710Z,58.77
2018-02-21T02:34:23.166Z,63.70
2018-02-21T02:36:50.872Z,64.03
2018-02-21T02:39:30.069Z,67.73
2018-02-21T02:41:57.564Z,58.30
2018-02-21T02:44:25.033Z,59.10
2018-02-21T02:46:52.502Z,61.87
2018-02-21T02:49:20.537Z,64.70
2018-02-21T02:51:47.998Z,59.97
2018-02-21T02:54:15.729Z,60.90
2018-02-21T02:56:43.185Z,63.90
2018-02-21T02:59:10.653Z,60.20
2018-02-21T03:01:38.117Z,54.40
2018-02-21T03:04:05.596Z,61.87
2018-02-21T03:06:33.397Z,60.97
2018-02-21T03:09:00.841Z,55.53
2018-02-21T03:11:28.289Z,55.60
2018-02-21T03:13:55.752Z,62.20
2018-02-21T03:16:23.228Z,63.30
2018-02-21T03:18:50.716Z,64.77
2018-02-21T03:21:18.182Z,65.23
2018-02-21T03:23:45.641Z,59.00
2018-02-21T03:26:13.110Z,57.23
2018-02-21T03:28:40.558Z,64.03
2018-02-21T03:31:08.222Z,58.37
2018-02-21T03:33:35.675Z,66.30
2018-02-21T03:36:03.121Z,55.03
2018-02-21T03:38:30.590Z,61.03
2018-02-21T03:40:58.038Z,63.80
2018-02-21T03:43:25.516Z,67.43
2018-02-21T03:45:52.968Z,74.50
2018-02-21T03:48:21.216Z,68.40
2018-02-21T03:50:48.741Z,59.50
2018-02-21T03:53:16.236Z,74.80
2018-02-21T03:55:43.918Z,63.50
2018-02-21T03:58:11.373Z,60.13
2018-02-21T04:00:39.345Z,67.10
2018-02-21T04:03:06.888Z,75.50
2018-02-21T04:05:34.356Z,69.60
2018-02-21T04:08:01.841Z,62.23
2018-02-21T04:10:29.289Z,68.40
2018-02-21T04:12:56.739Z,64.27
2018-02-21T04:15:24.216Z,59.87
2018-02-21T04:17:51.669Z,59.37
2018-02-21T04:20:19.355Z,65.10
2018-02-21T04:22:46.806Z,61.10
2018-02-21T04:25:14.276Z,67.57
2018-02-21T04:27:41.745Z,64.00
2018-02-21T04:30:09.202Z,61.93
2018-02-21T04:32:37.193Z,67.73
2018-02-21T04:35:04.642Z,77.97
2018-02-21T04:37:32.089Z,62.53
2018-02-21T04:39:59.565Z,68.90
2018-02-21T04:42:27.020Z,62.73
2018-02-21T04:44:54.645Z,61.20
2018-02-21T04:47:22.141Z,71.83
2018-02-21T04:49:49.593Z,63.30
2018-02-21T04:52:17.093Z,71.53
2018-02-21T04:58:12.205Z,55.10
2018-02-21T05:00:39.708Z,67.27
2018-02-21T05:03:07.193Z,59.60
2018-02-21T05:05:34.657Z,56.70
2018-02-21T05:08:02.117Z,62.23
2018-02-21T05:10:29.588Z,63.47
2018-02-21T05:12:57.060Z,67.13
2018-02-21T05:15:24.570Z,69.17
2018-02-21T05:17:52.421Z,67.17
2018-02-21T05:20:19.870Z,66.03
2018-02-21T05:22:47.338Z,73.30
2018-02-21T05:25:14.785Z,62.77
2018-02-21T05:27:42.369Z,73.10
2018-02-21T05:30:09.817Z,73.70
2018-02-21T05:32:37.296Z,68.60
2018-02-21T05:35:04.786Z,60.60
2018-02-21T05:37:32.243Z,70.93
2018-02-21T05:39:59.909Z,66.03
2018-02-21T05:42:27.436Z,61.93
2018-02-21T05:44:54.885Z,70.80
2018-02-21T05:47:22.361Z,71.13
2018-02-21T05:49:49.837Z,68.17
2018-02-21T05:52:17.469Z,73.20
2018-02-21T05:54:44.916Z,66.40
2018-02-21T05:57:12.390Z,66.40
2018-02-21T05:59:39.860Z,70.37
2018-02-21T06:02:07.312Z,77.97
2018-02-21T06:04:35.602Z,69.80
2018-02-21T06:07:03.065Z,76.13
2018-02-21T06:09:30.513Z,71.20
2018-02-21T06:11:57.993Z,75.50
2018-02-21T06:14:25.449Z,71.90
2018-02-21T06:16:52.925Z,77.73
2018-02-21T06:19:20.377Z,81.03
2018-02-21T06:21:47.826Z,75.03
2018-02-21T06:24:15.313Z,77.10
2018-02-21T06:26:42.786Z,73.07
2018-02-21T06:29:10.451Z,74.47
2018-02-21T06:31:37.937Z,84.90
2018-02-21T06:34:05.389Z,64.17
2018-02-21T06:36:32.858Z,70.90
2018-02-21T06:39:00.317Z,78.73
2018-02-21T06:41:28.048Z,66.17
2018-02-21T06:43:55.502Z,72.33
2018-02-21T06:46:22.952Z,72.60
2018-02-21T06:48:50.449Z,79.80
2018-02-21T06:51:17.909Z,69.60
2018-02-21T06:53:45.483Z,71.87
2018-02-21T06:56:12.945Z,73.17
2018-02-21T06:58:40.392Z,79.33
2018-02-21T07:01:07.893Z,69.07
2018-02-21T07:03:35.457Z,83.37
2018-02-21T07:06:03.009Z,65.57
2018-02-21T07:08:30.465Z,71.73
2018-02-21T07:10:57.916Z,71.30
2018-02-21T07:13:25.409Z,66.33
2018-02-21T07:15:52.873Z,77.90
2018-02-21T07:18:20.362Z,79.83
2018-02-21T07:20:47.847Z,66.83
2018-02-21T07:23:15.310Z,67.43
2018-02-21T07:25:42.788Z,69.23
2018-02-21T07:28:10.241Z,68.50
2018-02-21T07:30:38.113Z,74.93
2018-02-21T07:33:05.558Z,63.03
2018-02-21T07:35:33.494Z,82.50
2018-02-21T07:38:00.965Z,75.83
2018-02-21T07:40:28.413Z,63.57
2018-02-21T07:42:56.156Z,79.87
2018-02-21T07:45:23.612Z,64.73
2018-02-21T07:47:51.057Z,63.40
2018-02-21T07:50:19.626Z,62.20
2018-02-21T07:52:47.073Z,65.10
2018-02-21T07:55:14.560Z,69.77
2018-02-21T07:57:42.001Z,61.07
2018-02-21T08:00:09.449Z,69.70
2018-02-21T08:02:36.977Z,71.40
2018-02-21T08:05:04.444Z,76.77
2018-02-21T08:07:31.930Z,70.93
2018-02-21T08:09:59.381Z,62.47
2018-02-21T08:12:26.833Z,63.50
2018-02-21T08:14:54.320Z,76.93
2018-02-21T08:17:21.778Z,71.03
2018-02-21T08:19:49.484Z,70.83
2018-02-21T08:22:16.932Z,74.17
2018-02-21T08:24:44.396Z,70.43
2018-02-21T08:27:11.901Z,68.90
2018-02-21T08:29:39.353Z,72.90
2018-02-21T08:32:06.850Z,64.83
2018-02-21T08:34:34.313Z,62.20
2018-02-21T08:37:02.339Z,56.50
2018-02-21T08:39:29.832Z,61.27
2018-02-21T08:41:57.292Z,59.27
2018-02-21T08:44:25.054Z,58.80
2018-02-21T08:46:52.505Z,58.10
2018-02-21T08:49:20.298Z,54.77
2018-02-21T08:51:47.865Z,55.27
2018-02-21T08:54:15.328Z,52.40
2018-02-21T08:56:42.832Z,63.20
2018-02-21T08:59:10.285Z,48.63
2018-02-21T09:01:37.737Z,46.63
2018-02-21T09:04:05.285Z,49.83
2018-02-21T09:06:32.701Z,46.17
2018-02-21T09:09:00.200Z,53.63
2018-02-21T09:11:27.656Z,51.73
2018-02-21T09:13:55.126Z,45.43
2018-02-21T09:16:22.609Z,49.90
2018-02-21T09:18:50.066Z,49.53
2018-02-21T09:21:17.554Z,49.47
2018-02-21T09:23:45.031Z,48.50
2018-02-21T09:26:12.477Z,53.30
2018-02-21T09:28:39.961Z,54.00
2018-02-21T09:31:07.416Z,55.27
2018-02-21T09:33:35.085Z,57.70
2018-02-21T09:36:02.613Z,54.37
2018-02-21T09:38:30.065Z,40.70
2018-02-21T09:40:57.537Z,48.30
2018-02-21T09:43:25.005Z,43.80
2018-02-21T09:45:53.481Z,48.03
2018-02-21T09:48:21.937Z,52.40
2018-02-21T09:50:49.630Z,45.70
2018-02-21T09:53:17.141Z,40.13
2018-02-21T09:55:44.611Z,55.77
2018-02-21T09:58:12.317Z,45.40
2018-02-21T10:00:40.125Z,48.73
2018-02-21T10:03:07.581Z,45.87
2018-02-21T10:05:35.074Z,40.57
2018-02-21T10:08:02.518Z,37.70
2018-02-21T10:10:30.021Z,46.40
2018-02-21T10:13:02.171Z,45.13
2018-02-21T10:15:30.014Z,44.80
2018-02-21T10:17:57.489Z,44.87
2018-02-21T10:20:24.981Z,44.87
2018-02-21T10:22:52.421Z,43.03
2018-02-21T10:25:19.900Z,43.77
2018-02-21T10:27:47.626Z,52.10
2018-02-21T10:30:15.085Z,53.70
2018-02-21T10:32:45.601Z,44.37
2018-02-21T10:35:13.425Z,43.70
2018-02-21T10:37:40.904Z,56.77
2018-02-21T10:40:18.029Z,54.17
2018-02-21T10:42:45.500Z,53.53
2018-02-21T10:45:12.969Z,50.00
2018-02-21T10:47:41.041Z,55.10
2018-02-21T10:50:08.489Z,44.03
2018-02-21T10:52:36.133Z,49.03
2018-02-21T10:55:03.586Z,55.73
2018-02-21T10:57:31.048Z,51.57
2018-02-21T10:59:58.532Z,54.27
2018-02-21T11:02:25.990Z,45.30
2018-02-21T11:04:55.216Z,42.93
2018-02-21T11:07:22.645Z,42.73
2018-02-21T11:09:50.093Z,46.00
2018-02-21T11:12:17.561Z,46.60
2018-02-21T11:14:45.039Z,41.70
2018-02-21T11:17:12.533Z,47.93
2018-02-21T11:19:39.982Z,44.87
2018-02-21T11:22:07.467Z,46.10
2018-02-21T11:24:35.163Z,45.60
2018-02-21T11:27:02.613Z,51.53
2018-02-21T11:29:30.398Z,48.97
2018-02-21T11:31:57.874Z,51.47
2018-02-21T11:34:25.345Z,50.47
2018-02-21T11:36:52.828Z,44.50
2018-02-21T11:39:20.313Z,45.90
2018-02-21T11:41:47.874Z,45.67
2018-02-21T11:44:15.324Z,46.20
2018-02-21T11:46:43.180Z,52.53
2018-02-21T11:49:10.766Z,40.87
2018-02-21T11:51:38.222Z,41.30
2018-02-21T11:54:05.950Z,41.27
2018-02-21T11:56:33.399Z,41.30
2018-02-21T11:59:00.940Z,46.47
2018-02-21T12:01:28.425Z,45.67
2018-02-21T12:03:55.873Z,47.53
2018-02-21T12:06:23.500Z,43.70
2018-02-21T12:08:50.962Z,45.73
2018-02-21T12:11:18.413Z,43.57
2018-02-21T12:13:45.877Z,49.33
2018-02-21T12:16:13.353Z,48.60
2018-02-21T12:18:40.944Z,43.73
2018-02-21T12:21:08.406Z,40.13
2018-02-21T12:23:35.854Z,38.77
2018-02-21T12:26:03.322Z,43.70
2018-02-21T12:28:30.776Z,38.53
2018-02-21T12:30:58.398Z,40.60
2018-02-21T12:33:25.861Z,41.23
2018-02-21T12:35:53.316Z,36.13
2018-02-21T12:38:20.817Z,46.43
2018-02-21T12:40:53.963Z,44.80
2018-02-21T12:43:21.508Z,40.27
2018-02-21T12:45:48.965Z,36.10
2018-02-21T12:48:16.470Z,43.90
2018-02-21T12:50:43.929Z,39.40
2018-02-21T12:53:11.418Z,39.87
2018-02-21T12:55:38.877Z,39.20
2018-02-21T12:58:06.338Z,43.70
2018-02-21T13:00:34.165Z,41.67
2018-02-21T13:03:01.630Z,43.30
2018-02-21T13:05:29.096Z,39.30
2018-02-21T13:07:56.569Z,35.07
2018-02-21T13:10:24.029Z,37.90
2018-02-21T13:12:51.525Z,35.50
2018-02-21T13:15:18.979Z,35.50
2018-02-21T13:17:46.432Z,31.90
2018-02-21T13:20:14.198Z,44.10
2018-02-21T13:22:41.645Z,35.60
2018-02-21T13:25:09.147Z,38.47
2018-02-21T13:27:36.610Z,33.40
2018-02-21T13:30:04.067Z,37.37
2018-02-21T13:32:31.805Z,38.67
2018-02-21T13:34:59.266Z,35.00
2018-02-21T13:37:26.718Z,35.53
2018-02-21T13:39:54.193Z,31.97
2018-02-21T13:42:21.653Z,35.70
2018-02-21T13:44:50.265Z,36.77
2018-02-21T13:47:17.741Z,37.57
2018-02-21T13:49:45.200Z,40.97
2018-02-21T13:52:12.677Z,39.20
2018-02-21T13:54:40.134Z,42.80
2018-02-21T13:57:07.809Z,41.40
2018-02-21T13:59:35.274Z,33.80
2018-02-21T14:02:02.733Z,37.37
2018-02-21T14:04:30.210Z,41.47
2018-02-21T14:06:58.018Z,45.10
2018-02-21T14:09:25.689Z,35.00
2018-02-21T14:11:53.138Z,43.93
2018-02-21T14:14:20.593Z,33.07
2018-02-21T14:16:48.060Z,42.77
2018-02-21T14:19:15.915Z,32.60
2018-02-21T14:21:43.401Z,35.30
2018-02-21T14:24:10.870Z,32.57
2018-02-21T14:26:38.321Z,35.77
2018-02-21T14:29:05.824Z,30.50
2018-02-21T14:31:33.260Z,34.07
2018-02-21T14:34:00.979Z,38.47
2018-02-21T14:36:28.432Z,37.77
2018-02-21T14:38:55.884Z,34.57
2018-02-21T14:41:23.361Z,38.00
2018-02-21T14:43:50.809Z,35.17
2018-02-21T14:46:18.299Z,31.47
2018-02-21T14:48:45.752Z,28.23
2018-02-21T14:51:13.221Z,32.90
2018-02-21T14:53:40.694Z,26.10
2018-02-21T14:56:08.145Z,33.60
2018-02-21T14:58:35.782Z,26.60
2018-02-21T15:01:03.253Z,27.40
2018-02-21T15:03:30.710Z,31.60
2018-02-21T15:05:58.364Z,33.00
2018-02-21T15:08:25.932Z,31.73
2018-02-21T15:10:53.636Z,25.63
2018-02-21T15:13:21.102Z,29.60
2018-02-21T15:15:48.554Z,33.63
2018-02-21T15:18:16.026Z,28.10
2018-02-21T15:20:43.486Z,32.83
2018-02-21T15:23:10.982Z,31.57
2018-02-21T15:25:38.446Z,35.83
2018-02-21T15:28:05.906Z,32.53
2018-02-21T15:30:33.381Z,26.47
2018-02-21T15:33:00.826Z,28.50
2018-02-21T15:35:28.301Z,32.07
2018-02-21T15:37:55.781Z,32.70
2018-02-21T15:40:23.245Z,37.00
2018-02-21T15:42:50.725Z,30.17
2018-02-21T15:45:18.226Z,27.13
2018-02-21T15:47:45.695Z,39.53
2018-02-21T15:50:13.162Z,27.83
2018-02-21T15:52:41.502Z,30.67
2018-02-21T15:55:08.978Z,33.03
2018-02-21T15:57:36.438Z,28.97
2018-02-21T16:00:03.918Z,30.73
2018-02-21T16:02:31.376Z,32.27
2018-02-21T16:04:58.853Z,26.20
2018-02-21T16:07:26.350Z,31.37
2018-02-21T16:09:53.805Z,28.10
2018-02-21T16:12:21.290Z,30.60
2018-02-21T16:14:48.777Z,29.17
2018-02-21T16:17:16.257Z,40.23
2018-02-21T16:19:43.745Z,30.87
2018-02-21T16:22:11.201Z,33.57
2018-02-21T16:24:38.646Z,35.23
2018-02-21T16:27:06.150Z,30.33
2018-02-21T16:29:33.702Z,31.77
2018-02-21T16:32:01.206Z,34.73
2018-02-21T16:34:28.686Z,30.73
2018-02-21T16:36:56.134Z,31.57
2018-02-21T16:39:23.830Z,28.73
2018-02-21T16:41:51.361Z,50.33
2018-02-21T16:44:18.809Z,28.70
2018-02-21T16:46:46.262Z,35.00
2018-02-21T16:49:13.968Z,36.80
2018-02-21T16:51:41.841Z,32.03
2018-02-21T16:54:14.866Z,33.30
2018-02-21T16:56:42.469Z,30.20
2018-02-21T16:59:09.920Z,29.60
2018-02-21T17:01:37.421Z,33.17
2018-02-21T17:04:04.892Z,33.67
2018-02-21T17:06:32.341Z,27.77
2018-02-21T17:08:59.969Z,34.00
2018-02-21T17:11:27.445Z,28.23
2018-02-21T17:13:55.424Z,29.47
2018-02-21T17:16:23.189Z,33.70
2018-02-21T17:18:50.648Z,32.73
2018-02-21T17:21:18.097Z,33.00
2018-02-21T17:23:45.580Z,33.60
2018-02-21T17:26:13.092Z,34.50
2018-02-21T17:28:40.864Z,33.53
2018-02-21T17:31:08.344Z,28.43
2018-02-21T17:33:35.796Z,31.23
2018-02-21T17:36:03.290Z,37.97
2018-02-21T17:38:30.736Z,38.07
2018-02-21T17:41:03.977Z,29.37
2018-02-21T17:43:31.428Z,32.77
2018-02-21T17:45:58.873Z,31.70
2018-02-21T17:48:26.358Z,38.73
2018-02-21T17:50:53.828Z,36.60
2018-02-21T17:53:21.481Z,36.80
2018-02-21T17:55:49.006Z,37.53
2018-02-21T17:58:16.458Z,31.47
2018-02-21T18:00:44.328Z,37.90
2018-02-21T18:03:11.790Z,34.93
2018-02-21T18:05:39.458Z,37.77
2018-02-21T18:08:06.904Z,35.43
2018-02-21T18:10:34.373Z,34.47
2018-02-21T18:13:01.874Z,36.20
2018-02-21T18:15:29.371Z,30.17
2018-02-21T18:17:56.856Z,32.73
2018-02-21T18:20:24.310Z,35.00
2018-02-21T18:22:51.761Z,25.00
2018-02-21T18:25:19.237Z,33.30
2018-02-21T18:27:46.715Z,31.10
2018-02-21T18:30:14.200Z,36.97
2018-02-21T18:32:41.673Z,34.20
2018-02-21T18:35:09.138Z,26.67
2018-02-21T18:37:36.615Z,33.97
2018-02-21T18:40:04.069Z,35.33
2018-02-21T18:42:31.994Z,32.27
2018-02-21T18:44:59.690Z,33.47
2018-02-21T18:47:27.911Z,26.77
2018-02-21T18:49:55.397Z,28.87
2018-02-21T18:52:22.888Z,27.23
2018-02-21T18:54:50.577Z,27.50
2018-02-21T18:57:18.021Z,29.17
2018-02-21T18:59:45.557Z,31.13
2018-02-21T19:02:13.033Z,30.23
2018-02-21T19:04:40.477Z,25.03
2018-02-21T19:07:08.337Z,23.93
2018-02-21T19:09:35.797Z,27.67
2018-02-21T19:12:03.266Z,27.00
2018-02-21T19:14:30.745Z,25.43
2018-02-21T19:16:58.206Z,26.73
2018-02-21T19:19:25.689Z,20.13
2018-02-21T19:21:53.137Z,21.50
2018-02-21T19:24:20.585Z,19.23
2018-02-21T19:26:48.061Z,24.60
2018-02-21T19:29:15.512Z,18.33
2018-02-21T19:31:43.143Z,18.90
2018-02-21T19:34:10.661Z,23.50
2018-02-21T19:36:38.113Z,20.63
2018-02-21T19:39:05.610Z,27.33
2018-02-21T19:41:33.069Z,17.27
2018-02-21T19:44:00.888Z,15.80
2018-02-21T19:46:28.721Z,16.90
2018-02-21T19:48:56.171Z,21.30
2018-02-21T19:51:23.656Z,24.03
2018-02-21T19:53:51.106Z,24.03
2018-02-21T19:56:18.877Z,24.20
2018-02-21T19:58:46.342Z,21.00
2018-02-21T20:01:13.789Z,23.37
2018-02-21T20:03:41.265Z,19.30
2018-02-21T20:06:08.722Z,25.97
2018-02-21T20:08:36.225Z,20.73
2018-02-21T20:11:03.689Z,21.73
2018-02-21T20:13:31.142Z,21.60
2018-02-21T20:15:58.625Z,20.97
2018-02-21T20:18:26.072Z,19.47
2018-02-21T20:20:53.881Z,28.80
2018-02-21T20:23:21.378Z,26.27
2018-02-21T20:25:48.830Z,18.80
2018-02-21T20:28:16.314Z,23.03
2018-02-21T20:30:43.816Z,20.40
2018-02-21T20:33:12.065Z,20.07
2018-02-21T20:35:39.539Z,27.23
2018-02-21T20:38:07.017Z,30.70
2018-02-21T20:40:34.490Z,29.00
2018-02-21T20:43:01.937Z,24.10
2018-02-21T20:45:29.882Z,32.43
2018-02-21T20:47:57.329Z,27.07
2018-02-21T20:50:24.782Z,26.97
2018-02-21T20:52:52.253Z,28.43
2018-02-21T20:55:19.706Z,26.67
2018-02-21T20:57:47.438Z,34.47
2018-02-21T21:00:14.886Z,36.03
2018-02-21T21:02:42.497Z,46.97
2018-02-21T21:05:09.981Z,34.20
2018-02-21T21:07:37.892Z,36.00
2018-02-21T21:10:05.706Z,32.10
2018-02-21T21:12:33.166Z,41.57
2018-02-21T21:15:00.624Z,34.97
2018-02-21T21:17:29.973Z,40.43
2018-02-21T21:19:57.707Z,37.17
2018-02-21T21:22:25.626Z,30.90
2018-02-21T21:24:53.081Z,41.97
2018-02-21T21:27:20.533Z,40.63
2018-02-21T21:29:48.017Z,41.20
2018-02-21T21:32:15.510Z,40.70
2018-02-21T21:34:43.190Z,43.17
2018-02-21T21:37:10.643Z,36.27
2018-02-21T21:39:38.111Z,36.70
2018-02-21T21:42:05.581Z,43.50
2018-02-21T21:44:33.052Z,38.90
2018-02-21T21:47:01.237Z,39.23
2018-02-21T21:49:32.867Z,41.17
2018-02-21T21:51:56.160Z,39.57
2018-02-21T21:54:23.636Z,38.70
2018-02-21T21:56:51.081Z,40.27
2018-02-21T21:59:18.590Z,51.93
2018-02-21T22:01:46.037Z,37.30
2018-02-21T22:04:13.489Z,40.83
2018-02-21T22:06:41.069Z,41.97
2018-02-21T22:09:08.534Z,35.00
2018-02-21T22:11:36.305Z,39.23
2018-02-21T22:14:04.047Z,45.50
2018-02-21T22:16:31.831Z,49.13
2018-02-21T22:18:59.613Z,37.30
2018-02-21T22:21:27.061Z,38.23
2018-02-21T22:23:54.708Z,38.00
2018-02-21T22:26:22.164Z,40.30
2018-02-21T22:28:49.636Z,39.60
2018-02-21T22:31:17.132Z,44.00
2018-02-21T22:33:44.581Z,39.67
2018-02-21T22:36:12.052Z,35.77
2018-02-21T22:38:39.525Z,48.37
2018-02-21T22:41:06.981Z,33.17
2018-02-21T22:43:34.449Z,42.83
2018-02-21T22:46:01.944Z,37.10
2018-02-21T22:48:29.609Z,40.50
2018-02-21T22:50:57.057Z,39.93
2018-02-21T22:53:24.752Z,41.67
2018-02-21T22:55:52.278Z,40.37
2018-02-21T22:58:19.738Z,30.93
2018-02-21T23:00:47.239Z,37.13
2018-02-21T23:03:14.690Z,36.43
2018-02-21T23:05:42.960Z,36.90
2018-02-21T23:08:10.436Z,41.87
2018-02-21T23:10:38.116Z,45.77
2018-02-21T23:13:05.657Z,42.37
2018-02-21T23:15:33.109Z,36.60
2018-02-21T23:18:00.569Z,37.37
2018-02-21T23:20:28.045Z,36.73
2018-02-21T23:22:55.489Z,38.03
2018-02-21T23:25:22.973Z,39.40
2018-02-21T23:27:50.420Z,34.20
2018-02-21T23:30:17.877Z,38.43
2018-02-21T23:32:45.354Z,37.90
2018-02-21T23:35:12.805Z,38.70
2018-02-21T23:37:40.649Z,30.60
2018-02-21T23:40:08.120Z,32.17
2018-02-21T23:42:35.614Z,27.23
2018-02-21T23:45:03.097Z,28.70
2018-02-21T23:47:30.577Z,37.70
2018-02-21T23:49:58.297Z,32.30
2018-02-21T23:52:26.128Z,45.47
2018-02-21T23:54:53.596Z,32.53
2018-02-21T23:57:21.069Z,32.10
2018-02-21T23:59:48.547Z,30.43
